Time;durP1;ratioP1;P1;durP2;ratioP2;P2;SDS_P1;SDS_P2;PMS_P1;PMS_P2;Temp;Humidity;BMP_temperature;BMP_pressure;BME280_temperature;BME280_humidity;BME280_pressure;Samples;Min_cycle;Max_cycle;Signal;HPM_P1;HPM_P2
2022/10/10 00:02:27;;;;;;;5.57;2.30;;;;;;;10.63;66.72;99552.16;5077307;28;20044;-59
2022/10/10 00:05:12;;;;;;;5.57;3.00;;;;;;;10.50;67.87;99549.38;5038791;28;20055;-59
2022/10/10 00:07:57;;;;;;;4.13;2.72;;;;;;;10.43;67.89;99546.25;5042388;28;20130;-59
2022/10/10 00:10:42;;;;;;;4.53;2.75;;;;;;;10.26;69.15;99544.53;5034415;28;20042;-60
2022/10/10 00:13:26;;;;;;;4.57;2.92;;;;;;;10.28;70.20;99542.69;5041919;28;20094;-60
2022/10/10 00:16:11;;;;;;;4.43;2.75;;;;;;;10.18;69.95;99548.44;5039365;28;20048;-59
2022/10/10 00:18:56;;;;;;;5.65;3.22;;;;;;;10.09;71.10;99539.28;5040969;28;20037;-59
2022/10/10 00:21:41;;;;;;;6.57;3.20;;;;;;;10.07;71.03;99542.94;5041667;28;20055;-59
2022/10/10 00:24:25;;;;;;;4.05;2.65;;;;;;;10.34;70.32;99539.72;5045953;28;20037;-60
2022/10/10 00:27:10;;;;;;;5.30;3.10;;;;;;;10.44;71.17;99537.44;5034462;28;20056;-58
2022/10/10 00:29:54;;;;;;;5.78;3.13;;;;;;;10.74;69.86;99528.78;5035854;28;20033;-60
2022/10/10 00:32:38;;;;;;;7.18;2.90;;;;;;;10.92;69.95;99534.75;5040089;28;20033;-60
2022/10/10 00:35:24;;;;;;;6.25;2.95;;;;;;;10.79;69.53;99516.28;5026188;28;20118;-59
2022/10/10 00:38:09;;;;;;;4.10;2.85;;;;;;;10.64;69.58;99538.13;5040120;28;20178;-59
2022/10/10 00:40:55;;;;;;;6.18;3.00;;;;;;;10.66;69.74;99539.72;5041243;28;20037;-66
2022/10/10 00:43:39;;;;;;;4.03;2.55;;;;;;;10.64;70.61;99544.19;5043991;28;20112;-60
2022/10/10 00:46:24;;;;;;;5.07;2.50;;;;;;;10.77;70.30;99535.66;5038675;28;20047;-60
2022/10/10 00:49:23;;;;;;;4.85;2.78;;;;;;;10.63;70.53;99550.38;5040523;28;20060;-59
2022/10/10 00:52:11;;;;;;;6.25;3.03;;;;;;;10.55;71.41;99542.97;5040383;28;20564;-63
2022/10/10 00:54:56;;;;;;;5.22;3.28;;;;;;;10.77;70.73;99531.25;5040495;28;20037;-60
2022/10/10 00:57:41;;;;;;;5.35;2.47;;;;;;;10.99;71.16;99537.88;5039262;28;20037;-59
2022/10/10 01:00:26;;;;;;;5.25;2.63;;;;;;;10.92;69.99;99529.53;5040083;28;20353;-59
2022/10/10 01:03:11;;;;;;;4.82;2.75;;;;;;;11.37;70.02;99527.84;5040149;28;20049;-61
2022/10/10 01:05:56;;;;;;;4.60;2.70;;;;;;;11.41;69.41;99532.81;5041533;28;20400;-66
2022/10/10 01:08:41;;;;;;;3.90;2.30;;;;;;;11.43;69.29;99537.97;5041565;28;20127;-60
2022/10/10 01:11:32;;;;;;;4.35;2.40;;;;;;;10.87;71.74;99531.56;5039366;28;20041;-61
2022/10/10 01:14:45;;;;;;;5.45;2.50;;;;;;;10.89;71.18;99555.91;5041520;28;20065;-61
2022/10/10 01:17:52;;;;;;;6.20;2.80;;;;;;;10.56;72.20;99549.88;5041411;28;20384;-60
2022/10/10 01:20:56;;;;;;;5.05;2.30;;;;;;;11.18;72.55;99545.50;5048235;28;20449;-60
2022/10/10 01:23:59;;;;;;;3.17;2.17;;;;;;;11.32;70.68;99536.00;5049681;28;20044;-60
2022/10/10 01:27:09;;;;;;;4.80;2.10;;;;;;;11.54;69.88;99537.31;5048556;28;20087;-60
2022/10/10 01:30:04;;;;;;;4.38;2.10;;;;;;;11.40;69.48;99540.78;5048890;28;20056;-62
2022/10/10 01:33:05;;;;;;;3.67;2.30;;;;;;;11.39;70.97;99539.91;5033644;28;20037;-58
2022/10/10 01:35:54;;;;;;;6.53;2.50;;;;;;;11.15;71.27;99531.72;5047087;28;20119;-60
2022/10/10 01:38:49;;;;;;;6.57;2.60;;;;;;;11.11;70.12;99531.09;5046379;28;20522;-58
2022/10/10 01:41:44;;;;;;;4.03;2.42;;;;;;;10.79;72.31;99536.41;5049607;28;20115;-59
2022/10/10 01:44:29;;;;;;;3.75;2.17;;;;;;;10.87;71.84;99534.19;5046717;28;20052;-63
2022/10/10 01:47:15;;;;;;;7.68;2.47;;;;;;;11.19;71.83;99525.38;5032966;28;20037;-59
2022/10/10 01:50:07;;;;;;;5.50;2.72;;;;;;;10.78;71.99;99526.84;5048204;28;20033;-59
2022/10/10 01:52:54;;;;;;;7.20;2.38;;;;;;;11.07;70.99;99522.56;5045220;28;20467;-60
2022/10/10 01:55:53;;;;;;;3.58;2.28;;;;;;;10.93;72.03;99533.84;5034514;28;20043;-60
2022/10/10 01:58:47;;;;;;;4.68;2.70;;;;;;;10.89;72.49;99534.09;5043288;28;20037;-59
2022/10/10 02:01:52;;;;;;;6.20;2.33;;;;;;;10.50;73.80;99528.41;5041085;28;20048;-60
2022/10/10 02:04:36;;;;;;;5.22;2.30;;;;;;;10.90;73.45;99520.06;5044552;28;20037;-60
2022/10/10 02:07:36;;;;;;;6.03;2.40;;;;;;;11.29;71.68;99530.94;5041524;28;20392;-60
2022/10/10 02:10:27;;;;;;;4.80;2.33;;;;;;;11.15;72.17;99523.84;5041519;28;20041;-60
2022/10/10 02:13:13;;;;;;;4.13;2.38;;;;;;;10.59;75.55;99522.69;5046023;28;20412;-59
2022/10/10 02:16:00;;;;;;;3.85;2.15;;;;;;;11.07;72.36;99529.56;5030866;28;20112;-62
2022/10/10 02:18:46;;;;;;;4.25;2.65;;;;;;;10.99;72.42;99526.53;5055572;28;20037;-60
2022/10/10 02:21:31;;;;;;;5.60;2.35;;;;;;;11.31;71.75;99523.81;5041806;28;20138;-64
2022/10/10 02:24:18;;;;;;;5.93;2.53;;;;;;;11.19;71.95;99522.75;5039938;28;20056;-60
2022/10/10 02:27:11;;;;;;;4.32;2.33;;;;;;;11.33;71.10;99524.56;5046186;28;20120;-60
2022/10/10 02:29:57;;;;;;;6.13;2.30;;;;;;;11.16;71.43;99525.56;5069614;28;20045;-61
2022/10/10 02:32:47;;;;;;;3.53;2.28;;;;;;;10.82;72.36;99531.81;5068046;28;20466;-61
2022/10/10 02:35:36;;;;;;;6.50;2.35;;;;;;;10.82;73.93;99523.13;5028254;28;20115;-60
2022/10/10 02:38:21;;;;;;;3.17;1.75;;;;;;;11.27;73.31;99519.69;5048352;28;20048;-64
2022/10/10 02:41:09;;;;;;;3.58;2.00;;;;;;;11.32;71.76;99522.88;5046683;28;20431;-60
2022/10/10 02:43:54;;;;;;;5.05;2.47;;;;;;;11.25;70.64;99524.16;5038197;28;20121;-60
2022/10/10 02:46:39;;;;;;;5.05;2.40;;;;;;;10.79;72.80;99526.75;5041253;28;20087;-61
2022/10/10 02:49:29;;;;;;;4.38;2.45;;;;;;;10.82;72.97;99521.34;5042444;28;20036;-60
2022/10/10 02:52:16;;;;;;;4.93;2.80;;;;;;;10.52;73.76;99523.94;5020007;28;20113;-60
2022/10/10 02:55:00;;;;;;;3.92;2.65;;;;;;;10.96;73.74;99514.47;5042921;28;20424;-60
2022/10/10 02:57:45;;;;;;;4.18;2.53;;;;;;;10.35;74.90;99530.94;5038132;28;20124;-61
2022/10/10 03:00:29;;;;;;;3.95;2.95;;;;;;;10.16;76.51;99531.97;5043941;28;20098;-59
2022/10/10 03:03:14;;;;;;;4.78;2.50;;;;;;;10.30;76.56;99522.47;5044261;28;20163;-60
2022/10/10 03:05:59;;;;;;;4.13;2.28;;;;;;;10.29;76.20;99529.50;5034836;28;20037;-59
2022/10/10 03:08:43;;;;;;;5.20;3.05;;;;;;;10.25;75.85;99524.53;5037702;28;20061;-60
2022/10/10 03:11:28;;;;;;;6.47;2.80;;;;;;;10.20;76.91;99523.00;5047120;28;20464;-60
2022/10/10 03:14:13;;;;;;;5.38;2.90;;;;;;;10.12;76.54;99538.28;5040968;28;20104;-61
2022/10/10 03:16:57;;;;;;;6.45;2.80;;;;;;;9.91;77.93;99529.81;5039373;28;20380;-61
2022/10/10 03:19:42;;;;;;;5.10;2.55;;;;;;;10.04;77.55;99532.59;5043238;28;20029;-61
2022/10/10 03:22:26;;;;;;;6.85;2.88;;;;;;;10.05;78.20;99529.94;5046509;28;20457;-60
2022/10/10 03:25:11;;;;;;;7.35;3.33;;;;;;;9.87;77.65;99531.75;5021957;28;20040;-60
2022/10/10 03:27:55;;;;;;;5.07;2.95;;;;;;;9.58;79.44;99527.13;5036678;28;20038;-60
2022/10/10 03:30:41;;;;;;;5.57;3.08;;;;;;;9.84;79.65;99518.84;5041725;28;20116;-60
2022/10/10 03:33:25;;;;;;;4.68;3.20;;;;;;;9.90;78.17;99525.50;5041271;28;20543;-60
2022/10/10 03:36:09;;;;;;;6.38;3.00;;;;;;;10.33;77.09;99519.72;5034796;28;20045;-60
2022/10/10 03:38:54;;;;;;;4.93;2.90;;;;;;;10.31;77.93;99527.66;5042750;28;20493;-60
2022/10/10 03:41:39;;;;;;;4.95;3.22;;;;;;;9.70;78.47;99522.19;5038284;28;20037;-60
2022/10/10 03:44:24;;;;;;;4.38;2.80;;;;;;;10.08;78.64;99521.06;5040636;28;20045;-61
2022/10/10 03:47:08;;;;;;;6.50;3.00;;;;;;;10.20;77.22;99520.38;5042600;28;20115;-60
2022/10/10 03:49:53;;;;;;;4.22;2.17;;;;;;;10.77;76.18;99514.69;5052070;28;20044;-61
2022/10/10 03:52:38;;;;;;;4.38;2.80;;;;;;;10.82;73.90;99517.91;5041394;28;20048;-59
2022/10/10 03:55:23;;;;;;;6.28;3.13;;;;;;;10.01;76.88;99519.69;5039252;28;20144;-60
2022/10/10 03:58:09;;;;;;;5.88;2.70;;;;;;;10.15;78.06;99513.72;5030275;28;20451;-60
2022/10/10 04:00:58;;;;;;;5.28;2.55;;;;;;;9.99;76.79;99517.16;5036622;28;20059;-65
2022/10/10 04:03:46;;;;;;;4.43;2.90;;;;;;;10.38;75.04;99506.34;5037210;28;20358;-63
2022/10/10 04:06:31;;;;;;;4.90;2.90;;;;;;;10.04;75.60;99511.66;5039785;28;20128;-61
2022/10/10 04:09:28;;;;;;;4.95;2.80;;;;;;;9.78;76.29;99506.06;5035557;28;20041;-67
2022/10/10 04:12:38;;;;;;;4.22;2.28;;;;;;;9.82;76.75;99505.00;5035406;28;20126;-62
2022/10/10 04:15:24;;;;;;;4.65;2.55;;;;;;;9.94;76.67;99506.13;5044162;28;20072;-62
2022/10/10 04:18:09;;;;;;;7.70;3.42;;;;;;;9.55;77.70;99505.50;5046021;28;20544;-61
2022/10/10 04:20:54;;;;;;;5.45;3.00;;;;;;;9.39;78.87;99498.47;5048370;28;20033;-61
2022/10/10 04:23:40;;;;;;;4.85;3.25;;;;;;;9.42;79.72;99497.47;5039894;28;20041;-61
2022/10/10 04:26:24;;;;;;;5.57;3.08;;;;;;;9.51;78.88;99504.00;5068914;28;20046;-60
2022/10/10 04:29:10;;;;;;;7.63;3.38;;;;;;;9.42;79.04;99494.84;5036636;28;20117;-60
2022/10/10 04:31:56;;;;;;;6.03;3.42;;;;;;;9.22;80.02;99500.19;5035213;28;20049;-60
2022/10/10 04:34:40;;;;;;;5.95;3.20;;;;;;;9.32;79.57;99492.72;5041719;28;20548;-62
2022/10/10 04:37:24;;;;;;;6.72;3.00;;;;;;;9.27;78.81;99496.50;5046849;28;20049;-59
2022/10/10 04:40:12;;;;;;;4.68;2.45;;;;;;;9.27;79.00;99489.50;5042088;28;20051;-67
2022/10/10 04:42:57;;;;;;;6.30;2.72;;;;;;;9.07;80.54;99493.13;5031710;28;20033;-61
2022/10/10 04:45:41;;;;;;;4.65;2.95;;;;;;;9.16;80.18;99494.41;5032744;28;20040;-62
2022/10/10 04:48:26;;;;;;;3.33;2.53;;;;;;;8.98;80.56;99491.81;5049188;28;20486;-61
2022/10/10 04:51:11;;;;;;;6.85;3.10;;;;;;;9.07;80.52;99491.38;5033865;28;20041;-62
2022/10/10 04:53:58;;;;;;;4.97;3.30;;;;;;;9.02;80.19;99496.00;5031854;28;20115;-63
2022/10/10 04:56:42;;;;;;;5.90;3.15;;;;;;;9.27;79.53;99501.75;5043750;28;20075;-62
2022/10/10 04:59:27;;;;;;;10.20;3.53;;;;;;;9.32;78.52;99494.50;5034147;28;20037;-62
2022/10/10 05:02:12;;;;;;;6.15;3.33;;;;;;;9.30;79.28;99497.16;5039741;28;20506;-71
2022/10/10 05:04:56;;;;;;;5.15;3.42;;;;;;;9.17;80.12;99489.13;5035679;28;20488;-61
2022/10/10 05:07:41;;;;;;;5.03;3.40;;;;;;;9.15;79.64;99490.97;5037054;28;20125;-61
2022/10/10 05:10:26;;;;;;;6.20;3.00;;;;;;;9.22;79.63;99494.13;5040259;28;20474;-60
2022/10/10 05:13:12;;;;;;;6.00;2.60;;;;;;;9.41;78.08;99498.41;5035832;28;20068;-61
2022/10/10 05:15:57;;;;;;;6.47;2.78;;;;;;;9.19;78.61;99495.13;5073010;28;20063;-60
2022/10/10 05:18:42;;;;;;;3.55;2.80;;;;;;;9.24;79.15;99500.09;5047488;28;20049;-60
2022/10/10 05:21:27;;;;;;;4.88;3.35;;;;;;;9.26;78.54;99493.03;5053294;28;20064;-60
2022/10/10 05:24:11;;;;;;;5.35;3.03;;;;;;;9.32;78.73;99495.34;5014027;28;20124;-64
2022/10/10 05:26:58;;;;;;;8.48;3.30;;;;;;;9.49;77.99;99498.84;5020913;28;20461;-61
2022/10/10 05:29:42;;;;;;;4.20;2.75;;;;;;;9.54;77.45;99495.97;5040080;28;20025;-63
2022/10/10 05:32:30;;;;;;;6.15;3.25;;;;;;;9.50;77.39;99495.28;5034886;28;20037;-62
2022/10/10 05:35:15;;;;;;;7.30;4.10;;;;;;;9.36;78.31;99493.41;5040106;28;20076;-65
2022/10/10 05:37:59;;;;;;;6.13;3.40;;;;;;;9.44;77.99;99498.22;5036546;28;20079;-62
2022/10/10 05:40:44;;;;;;;6.75;3.95;;;;;;;9.38;78.80;99496.81;5042614;28;20396;-66
2022/10/10 05:43:29;;;;;;;4.88;3.50;;;;;;;9.55;78.64;99502.91;5042131;28;20741;-61
2022/10/10 05:46:13;;;;;;;8.27;3.50;;;;;;;9.38;78.84;99502.03;5040877;28;20048;-61
2022/10/10 05:48:58;;;;;;;8.57;4.85;;;;;;;9.28;79.78;99506.03;5035684;28;20037;-61
2022/10/10 05:51:43;;;;;;;6.22;3.33;;;;;;;9.49;78.71;99502.31;5033010;28;20029;-60
2022/10/10 05:54:27;;;;;;;5.85;3.00;;;;;;;9.43;78.67;99505.25;5039435;28;20117;-60
2022/10/10 05:57:12;;;;;;;9.40;3.58;;;;;;;9.57;78.47;99506.28;5035064;28;20045;-67
2022/10/10 05:59:57;;;;;;;5.88;3.33;;;;;;;9.44;78.60;99508.69;5041000;28;20083;-61
2022/10/10 06:02:41;;;;;;;7.20;3.22;;;;;;;9.35;78.35;99504.81;5046485;28;20334;-60
2022/10/10 06:05:26;;;;;;;5.60;3.13;;;;;;;9.68;77.80;99516.16;5039765;28;20040;-62
2022/10/10 06:08:11;;;;;;;5.25;3.42;;;;;;;9.58;78.41;99511.44;5039435;28;20046;-61
2022/10/10 06:11:06;;;;;;;4.80;2.97;;;;;;;9.43;78.72;99512.25;5044096;28;20434;-62
2022/10/10 06:13:53;;;;;;;7.13;3.42;;;;;;;9.59;77.83;99512.28;5047540;28;20099;-61
2022/10/10 06:16:38;;;;;;;9.90;3.58;;;;;;;9.65;77.54;99513.72;5045187;28;20064;-62
2022/10/10 06:19:22;;;;;;;10.23;3.15;;;;;;;9.73;78.01;99508.94;5050106;28;20072;-62
2022/10/10 06:22:07;;;;;;;9.60;3.47;;;;;;;9.70;77.76;99515.19;5053689;28;20857;-62
2022/10/10 06:24:52;;;;;;;4.97;2.60;;;;;;;9.77;77.83;99514.84;5030502;28;20044;-63
2022/10/10 06:27:37;;;;;;;7.40;3.60;;;;;;;9.68;78.48;99527.50;5040059;28;20065;-65
2022/10/10 06:30:22;;;;;;;5.55;2.92;;;;;;;9.61;77.77;99513.88;5044302;28;20392;-67
2022/10/10 06:33:06;;;;;;;6.93;3.08;;;;;;;9.46;78.42;99512.94;5035338;28;20439;-63
2022/10/10 06:35:51;;;;;;;5.03;2.78;;;;;;;9.68;77.29;99503.94;5038965;28;20460;-61
2022/10/10 06:38:38;;;;;;;7.25;2.55;;;;;;;9.67;76.77;99512.72;5037624;28;20099;-63
2022/10/10 06:41:23;;;;;;;6.70;2.90;;;;;;;9.90;76.17;99507.19;5034914;28;20029;-63
2022/10/10 06:44:08;;;;;;;6.22;2.85;;;;;;;9.76;76.07;99505.31;5037152;28;20047;-64
2022/10/10 06:46:52;;;;;;;4.65;2.80;;;;;;;9.76;76.47;99508.75;5035911;28;20384;-62
2022/10/10 06:49:37;;;;;;;4.45;2.60;;;;;;;9.90;75.83;99507.19;5037527;28;20106;-62
2022/10/10 06:52:22;;;;;;;5.75;2.83;;;;;;;9.75;76.71;99514.94;5042656;28;20448;-61
2022/10/10 06:55:08;;;;;;;6.45;2.83;;;;;;;9.75;76.46;99507.09;5035717;28;20060;-62
2022/10/10 06:57:53;;;;;;;8.10;2.90;;;;;;;9.92;76.00;99518.44;5035783;28;20120;-62
2022/10/10 07:00:39;;;;;;;4.80;2.47;;;;;;;10.11;75.50;99520.88;5040476;28;20420;-66
2022/10/10 07:03:28;;;;;;;4.47;2.50;;;;;;;9.77;76.04;99514.84;5037556;28;20415;-65
2022/10/10 07:06:15;;;;;;;7.20;3.45;;;;;;;9.67;76.78;99510.13;5042133;28;20131;-68
2022/10/10 07:09:02;;;;;;;5.22;2.72;;;;;;;9.60;77.09;99517.44;5040458;28;20109;-64
2022/10/10 07:11:47;;;;;;;8.50;3.30;;;;;;;9.56;77.82;99515.91;5033381;28;20029;-64
2022/10/10 07:14:31;;;;;;;6.53;3.00;;;;;;;9.64;77.57;99517.28;5039076;28;20369;-62
2022/10/10 07:17:16;;;;;;;7.75;3.17;;;;;;;9.84;76.97;99526.69;5038700;28;20041;-60
2022/10/10 07:20:06;;;;;;;6.68;2.88;;;;;;;10.07;75.65;99524.63;5036263;28;20098;-63
2022/10/10 07:22:52;;;;;;;7.60;3.03;;;;;;;9.86;75.53;99517.81;5038252;28;20124;-59
2022/10/10 07:25:38;;;;;;;4.90;2.75;;;;;;;9.93;76.13;99520.97;5038400;28;20044;-59
2022/10/10 07:28:23;;;;;;;6.65;2.95;;;;;;;9.90;75.64;99520.28;5040895;28;20041;-59
2022/10/10 07:31:09;;;;;;;5.38;2.40;;;;;;;10.08;74.75;99524.53;5037582;28;20499;-59
2022/10/10 07:33:54;;;;;;;5.80;2.50;;;;;;;9.95;75.09;99519.13;5039282;28;20040;-59
2022/10/10 07:36:40;;;;;;;4.40;2.22;;;;;;;10.18;74.25;99518.78;5056424;28;20033;-59
2022/10/10 07:39:25;;;;;;;4.38;2.28;;;;;;;10.11;74.03;99518.28;5035607;28;20084;-59
2022/10/10 07:42:10;;;;;;;4.88;1.95;;;;;;;10.23;73.85;99512.34;5035678;28;20042;-58
2022/10/10 07:44:54;;;;;;;4.45;2.17;;;;;;;10.33;73.56;99514.47;5040603;28;20033;-59
2022/10/10 07:47:39;;;;;;;6.28;2.95;;;;;;;10.29;74.01;99518.19;5036411;28;20119;-62
2022/10/10 07:50:27;;;;;;;4.50;2.40;;;;;;;10.31;74.00;99516.31;5041545;28;20110;-58
2022/10/10 07:53:12;;;;;;;6.40;2.70;;;;;;;10.27;74.10;99515.66;5046514;28;20120;-58
2022/10/10 07:55:56;;;;;;;7.13;2.72;;;;;;;10.13;74.46;99523.41;5035962;28;20042;-58
2022/10/10 07:58:41;;;;;;;7.45;2.38;;;;;;;10.29;74.42;99516.41;5041477;28;20061;-60
2022/10/10 08:01:26;;;;;;;5.95;2.63;;;;;;;10.41;73.79;99514.88;5045139;28;20045;-58
2022/10/10 08:04:10;;;;;;;5.57;2.55;;;;;;;10.34;74.16;99518.78;5042585;28;20069;-58
2022/10/10 08:06:55;;;;;;;7.30;2.40;;;;;;;10.40;74.10;99501.84;5037293;28;20075;-59
2022/10/10 08:09:40;;;;;;;7.32;2.55;;;;;;;10.39;74.03;99522.00;5047905;28;20404;-59
2022/10/10 08:12:24;;;;;;;4.20;2.50;;;;;;;10.67;72.91;99509.13;5061690;28;20492;-59
2022/10/10 08:15:10;;;;;;;7.15;2.90;;;;;;;10.59;72.93;99513.03;5043443;28;20038;-59
2022/10/10 08:17:54;;;;;;;4.63;2.50;;;;;;;10.74;72.54;99501.75;5042061;28;20071;-59
2022/10/10 08:20:39;;;;;;;5.25;2.38;;;;;;;10.75;72.73;99506.91;5037459;28;20041;-58
2022/10/10 08:23:24;;;;;;;3.58;1.75;;;;;;;10.94;72.04;99498.81;5041112;28;21838;-58
2022/10/10 08:26:12;;;;;;;4.82;2.45;;;;;;;10.95;71.83;99494.44;5036314;28;20111;-60
2022/10/10 08:28:56;;;;;;;9.05;4.63;;;;;;;11.09;71.15;99499.72;5037886;28;20120;-59
2022/10/10 08:31:41;;;;;;;6.75;2.15;;;;;;;11.07;71.14;99498.09;5044453;28;20437;-59
2022/10/10 08:34:25;;;;;;;3.85;1.83;;;;;;;11.28;70.59;99495.13;5042882;28;20120;-59
2022/10/10 08:37:10;;;;;;;3.92;2.08;;;;;;;11.30;70.51;99494.13;5043434;28;20135;-59
2022/10/10 08:39:55;;;;;;;5.82;2.08;;;;;;;11.24;70.35;99488.38;5037106;28;20155;-58
2022/10/10 08:42:46;;;;;;;2.67;1.90;;;;;;;11.03;71.24;99484.31;5040015;28;20051;-58
2022/10/10 08:45:32;;;;;;;4.40;1.95;;;;;;;11.51;69.84;99491.13;5037710;28;20033;-59
2022/10/10 08:48:25;;;;;;;5.53;2.30;;;;;;;11.32;70.41;99489.63;5033682;28;20433;-62
2022/10/10 08:51:16;;;;;;;5.18;1.80;;;;;;;11.49;69.76;99485.13;5028605;28;20115;-58
2022/10/10 08:54:04;;;;;;;3.75;2.00;;;;;;;11.61;69.24;99480.91;5033771;28;20040;-59
2022/10/10 08:56:49;;;;;;;5.85;2.13;;;;;;;11.41;70.38;99476.88;5030901;28;20060;-58
2022/10/10 08:59:37;;;;;;;4.95;2.17;;;;;;;11.68;68.88;99478.75;5043357;28;20030;-58
2022/10/10 09:02:37;;;;;;;3.03;2.03;;;;;;;11.75;69.12;99481.84;5046199;28;20041;-59
2022/10/10 09:05:40;;;;;;;3.47;2.20;;;;;;;11.32;70.26;99478.28;5030736;28;20095;-60
2022/10/10 09:08:46;;;;;;;3.25;1.50;;;;;;;11.85;70.70;99471.63;5032347;28;20048;-62
2022/10/10 09:11:51;;;;;;;5.38;1.63;;;;;;;15.06;66.12;99466.47;5031397;28;20064;-53
2022/10/10 09:15:02;;;;;;;2.67;1.77;;;;;;;14.73;60.20;99469.72;5034107;28;20069;-59
2022/10/10 09:18:05;;;;;;;2.47;1.40;;;;;;;14.31;60.56;99464.03;5032899;28;20057;-59
2022/10/10 09:21:23;;;;;;;5.75;1.77;;;;;;;14.27;59.83;99479.22;5032047;28;20271;-61
2022/10/10 09:24:19;;;;;;;5.80;1.80;;;;;;;14.08;60.28;99477.94;5028665;28;20057;-58
2022/10/10 09:27:09;;;;;;;2.60;1.65;;;;;;;15.34;61.32;99462.53;5042374;28;20067;-56
2022/10/10 09:30:12;;;;;;;3.33;1.50;;;;;;;15.70;58.10;99469.50;5046859;28;20037;-57
2022/10/10 09:33:24;;;;;;;14.23;4.32;;;;;;;15.57;57.17;99472.28;5037314;28;20108;-51
2022/10/10 09:36:15;;;;;;;71.20;15.93;;;;;;;17.27;58.18;99465.69;5043420;28;20488;-49
2022/10/10 09:39:12;;;;;;;23.13;6.63;;;;;;;17.03;54.61;99466.78;5040321;28;20045;-52
2022/10/10 09:42:00;;;;;;;11.82;3.63;;;;;;;17.16;51.35;99463.94;5043877;28;20191;-55
2022/10/10 09:44:44;;;;;;;9.00;2.38;;;;;;;16.73;51.68;99456.00;5041930;28;20147;-57
2022/10/10 09:47:29;;;;;;;6.93;2.03;;;;;;;16.19;56.49;99451.53;5041653;28;20128;-54
2022/10/10 09:50:14;;;;;;;5.57;1.98;;;;;;;16.68;53.57;99452.91;5032933;28;20068;-53
2022/10/10 09:52:59;;;;;;;4.55;1.88;;;;;;;18.06;50.38;99458.00;5043519;28;20040;-59
2022/10/10 09:55:46;;;;;;;5.72;2.00;;;;;;;18.27;49.81;99446.47;5024055;28;20048;-59
2022/10/10 09:58:35;;;;;;;4.55;1.90;;;;;;;17.28;55.29;99440.88;5044000;28;20057;-59
2022/10/10 10:01:24;;;;;;;3.17;1.58;;;;;;;16.93;50.79;99443.75;5037544;28;20053;-59
2022/10/10 10:04:08;;;;;;;6.57;2.55;;;;;;;16.71;52.84;99440.25;5030584;28;20167;-57
2022/10/10 10:07:16;;;;;;;2.92;1.73;;;;;;;16.25;53.22;99447.56;5036350;28;20033;-56
2022/10/10 10:10:10;;;;;;;7.25;2.30;;;;;;;18.18;53.06;99441.00;5033146;28;20043;-56
2022/10/10 10:12:56;;;;;;;3.92;1.70;;;;;;;18.06;49.46;99444.75;5031138;28;20191;-56
2022/10/10 10:15:48;;;;;;;6.07;2.28;;;;;;;16.99;54.72;99447.66;5033935;28;20410;-52
2022/10/10 10:18:38;;;;;;;4.50;1.88;;;;;;;19.15;46.90;99440.25;5033043;28;20112;-51
2022/10/10 10:21:23;;;;;;;6.07;1.70;;;;;;;20.60;46.28;99427.31;5032595;28;20231;-52
2022/10/10 10:24:27;;;;;;;3.97;1.60;;;;;;;17.78;48.50;99436.59;5031378;28;20038;-51
2022/10/10 10:27:17;;;;;;;2.50;1.60;;;;;;;17.48;49.48;99429.41;5022015;28;20587;-57
2022/10/10 10:30:02;;;;;;;3.35;1.35;;;;;;;18.64;47.35;99423.72;5038633;28;20075;-54
2022/10/10 10:33:32;;;;;;;4.78;2.17;;;;;;;17.61;49.49;99426.50;5036966;28;20120;-58
2022/10/10 10:36:40;;;;;;;4.47;1.88;;;;;;;17.73;49.18;99413.16;5072105;28;20539;-56
2022/10/10 10:39:34;;;;;;;3.17;1.52;;;;;;;18.38;47.83;99408.38;5074492;28;20068;-56
2022/10/10 10:42:29;;;;;;;4.72;1.75;;;;;;;18.41;48.19;99406.25;5065964;28;20492;-55
2022/10/10 10:45:19;;;;;;;3.45;1.65;;;;;;;18.93;46.54;99404.25;5067218;28;20488;-56
2022/10/10 10:48:04;;;;;;;3.78;1.98;;;;;;;20.00;47.57;99397.69;5066841;28;20439;-47
2022/10/10 10:50:57;;;;;;;3.40;1.50;;;;;;;19.56;46.72;99389.47;5068100;28;20471;-46
2022/10/10 10:54:18;;;;;;;3.90;1.50;;;;;;;19.00;46.63;99394.69;5067763;28;20412;-47
2022/10/10 10:57:23;;;;;;;3.65;1.38;;;;;;;18.39;46.37;99386.19;5065762;28;20044;-51
2022/10/10 11:00:13;;;;;;;2.05;1.25;;;;;;;17.43;48.27;99394.53;5066370;28;20057;-49
2022/10/10 11:03:39;;;;;;;3.83;2.00;;;;;;;17.51;48.28;99391.22;5069635;28;20467;-57
2022/10/10 11:06:41;;;;;;;4.18;1.58;;;;;;;18.33;46.87;99369.84;5071156;28;20060;-55
2022/10/10 11:09:40;;;;;;;2.42;1.50;;;;;;;18.30;45.37;99385.19;5068164;28;20123;-57
2022/10/10 11:12:43;;;;;;;3.80;1.95;;;;;;;19.18;43.14;99381.53;5051627;28;20072;-52
2022/10/10 11:15:40;;;;;;;2.63;1.58;;;;;;;20.01;42.37;99370.16;5032308;28;20461;-58
2022/10/10 11:18:46;;;;;;;2.30;1.30;;;;;;;19.84;42.03;99379.78;5032776;28;20045;-54
2022/10/10 11:21:36;;;;;;;4.15;1.52;;;;;;;19.57;42.02;99392.94;5074893;28;20090;-56
2022/10/10 11:24:27;;;;;;;4.43;1.70;;;;;;;18.72;43.75;99357.47;5033032;28;20033;-56
2022/10/10 11:27:39;;;;;;;4.75;1.95;;;;;;;18.21;45.23;99355.88;5032150;28;20067;-56
2022/10/10 11:30:28;;;;;;;4.95;2.08;;;;;;;18.60;43.86;99351.53;5033356;28;20085;-54
2022/10/10 11:33:18;;;;;;;5.07;1.60;;;;;;;18.26;44.91;99350.19;5041463;28;20042;-56
2022/10/10 11:36:12;;;;;;;3.25;1.60;;;;;;;17.96;44.67;99342.22;5029975;28;20421;-55
2022/10/10 11:39:09;;;;;;;2.00;1.27;;;;;;;17.75;45.17;99337.03;5034780;28;20041;-55
2022/10/10 11:42:01;;;;;;;3.97;1.55;;;;;;;18.02;44.63;99355.88;5032122;28;20159;-56
2022/10/10 11:44:55;;;;;;;4.03;1.63;;;;;;;17.76;44.92;99348.47;5033867;28;20073;-56
2022/10/10 11:47:46;;;;;;;4.22;1.80;;;;;;;17.45;45.77;99334.34;5030148;28;20068;-55
2022/10/10 11:50:37;;;;;;;5.03;2.03;;;;;;;17.09;47.16;99350.66;5049051;28;20037;-55
2022/10/10 11:53:42;;;;;;;4.88;1.70;;;;;;;17.21;47.79;99338.19;5032901;28;20037;-55
2022/10/10 11:56:38;;;;;;;3.88;1.85;;;;;;;17.53;47.11;99340.78;5034577;28;20047;-55
2022/10/10 11:59:30;;;;;;;5.50;1.73;;;;;;;17.31;48.10;99343.50;5029886;28;20123;-51
2022/10/10 12:02:22;;;;;;;4.22;2.45;;;;;;;17.54;47.83;99334.50;5034032;28;20405;-54
2022/10/10 12:05:20;;;;;;;4.20;1.80;;;;;;;17.81;47.15;99317.09;5031132;28;20063;-56
2022/10/10 12:08:19;;;;;;;6.13;2.10;;;;;;;18.66;46.85;99321.75;5029333;28;20060;-51
2022/10/10 12:11:20;;;;;;;4.97;2.30;;;;;;;18.40;46.35;99318.88;5029545;28;20068;-56
2022/10/10 12:14:08;;;;;;;5.25;1.63;;;;;;;17.70;47.40;99315.41;5033000;28;20465;-54
2022/10/10 12:16:54;;;;;;;3.55;1.90;;;;;;;17.98;47.51;99318.22;5033709;28;20088;-49
2022/10/10 12:19:39;;;;;;;4.07;1.88;;;;;;;18.13;47.22;99309.88;5033913;28;20033;-51
2022/10/10 12:22:27;;;;;;;2.35;1.38;;;;;;;18.32;47.07;99311.66;5034630;28;20036;-55
2022/10/10 12:25:46;;;;;;;4.70;1.85;;;;;;;17.69;48.02;99311.09;5031630;28;20053;-53
2022/10/10 12:28:58;;;;;;;4.82;1.45;;;;;;;17.76;48.35;99304.25;5047203;28;20087;-55
2022/10/10 12:31:42;;;;;;;5.00;1.50;;;;;;;18.04;47.21;99307.03;5037470;28;20472;-60
2022/10/10 12:34:57;;;;;;;3.25;1.30;;;;;;;18.40;46.56;99302.97;5046154;28;20037;-57
2022/10/10 12:38:04;;;;;;;3.88;1.42;;;;;;;17.95;47.73;99305.25;5044856;28;20044;-58
2022/10/10 12:41:04;;;;;;;4.18;1.60;;;;;;;17.76;48.19;99298.13;5031609;28;21707;-60
2022/10/10 12:44:17;;;;;;;3.92;2.08;;;;;;;17.58;48.97;99299.66;5046427;28;20079;-59
2022/10/10 12:47:14;;;;;;;4.85;1.75;;;;;;;17.49;48.95;99297.81;4985499;28;20057;-59
2022/10/10 12:50:03;;;;;;;5.05;2.10;;;;;;;17.36;49.41;99300.72;4986995;28;20112;-57
2022/10/10 12:52:53;;;;;;;3.58;1.88;;;;;;;17.29;49.69;99305.72;4985869;28;20030;-58
2022/10/10 12:55:43;;;;;;;2.47;1.55;;;;;;;17.35;49.69;99302.53;4985354;28;20038;-58
2022/10/10 12:58:39;;;;;;;3.75;2.25;;;;;;;17.59;49.61;99293.34;4986890;28;20418;-58
2022/10/10 13:01:31;;;;;;;8.20;3.00;;;;;;;17.89;49.16;99289.91;4985437;28;20474;-58
2022/10/10 13:04:17;;;;;;;3.17;1.70;;;;;;;17.92;49.00;99279.03;4963000;28;20143;-58
2022/10/10 13:07:02;;;;;;;3.53;1.98;;;;;;;18.01;49.39;99285.28;4970581;28;20043;-58
2022/10/10 13:09:48;;;;;;;4.43;1.98;;;;;;;17.96;49.63;99275.09;4986020;28;20114;-58
2022/10/10 13:12:33;;;;;;;6.50;2.03;;;;;;;18.17;48.55;99274.97;4991210;28;20038;-58
2022/10/10 13:15:21;;;;;;;3.25;1.70;;;;;;;18.01;47.77;99280.81;4968601;28;20066;-58
2022/10/10 13:18:05;;;;;;;3.60;1.70;;;;;;;18.32;47.40;99271.88;4981144;28;20438;-58
2022/10/10 13:20:55;;;;;;;4.47;1.85;;;;;;;18.30;46.65;99282.63;4970313;28;20133;-58
2022/10/10 13:23:43;;;;;;;4.50;1.80;;;;;;;18.28;46.85;99268.66;5025308;28;20041;-58